Air Resources Laboratory banner image
Air Resources Laboratory web site National Oceanic and Atmospheric Administration (NOAA)

or metar


KAST 170455Z AUTO 30006KT 10SM CLR 18/16 A2999 RMK AO2 RAE0357 SLP156 P0001
 T01830161=
KBKE 170453Z AUTO 22003KT 10SM CLR 19/09 A3004 RMK AO2 SLP146 T01890089=
KBNO 170453Z AUTO 06009KT 10SM CLR 26/01 A3006 RMK AO2 SLP127 T02560006=
KCVO 170456Z AUTO 30008KT 10SM CLR 22/14 A2993 RMK AO2 SLP134 T02170139=
KDLS 170453Z AUTO 33014KT 10SM CLR 29/15 A2986 RMK AO2 SLP110 T02890150=
KEUG 170454Z 35004KT 10SM CLR 22/13 A2992 RMK AO2 SLP129 T02220133=
KHIO 170453Z AUTO 29006KT 10SM CLR 24/14 A2993 RMK AO2 SLP131 T02390144=
KHRI 170453Z AUTO 19006KT 10SM CLR 24/11 A2988 RMK AO2 SLP113 T02440106=
KLGD 170456Z AUTO 30009KT 10SM CLR 26/09 A3001 RMK AO2 SLP138 T02610094=
KLKV 170453Z AUTO 33006KT 10SM CLR 19/03 A3010 RMK AO2 SLP146 T01890033=
KLMT 170453Z AUTO 21007KT 10SM CLR 25/08 A3002 RMK AO2 SLP113 T02500078=
KMEH 170456Z AUTO 00000KT 10SM CLR 16/09 A3011 RMK AO2 SLP167 T01610094=
KMFR 170453Z 33003KT 10SM CLR 29/12 A2989 RMK AO2 SLP108 T02890117 $=
KMMV 170453Z AUTO 35007KT 10SM CLR 24/12 A2992 RMK AO2 SLP131 T02390122=
KONO 170453Z AUTO 04003KT 10SM CLR 25/09 A2991 RMK AO2 SLP109 T02500089=
KONP 170455Z AUTO 34007KT 10SM CLR 15/13 RMK AO2=
KOTH 170456Z AUTO 36010KT 10SM CLR 17/15 A2996 RMK AO2 SLP146 T01670150=
KPDT 170453Z AUTO 17006KT 10SM CLR 26/06 A2995 RMK AO2 SLP122 T02610056=
KPDX 170453Z 31008KT 10SM CLR 26/16 A2992 RMK AO2 SLP131 T02560156=
KRBG 170453Z AUTO VRB03KT 10SM CLR 27/07 A2990 RMK AO2 SLP120 T02720067=
KRDM 170456Z 31007KT 10SM CLR 27/04 A3002 RMK AO2 SLP133 T02670039 $=
KREO 170452Z AUTO 07007KT 27/M01 A3002 RMK AO1 SLP116 T02671006=
KSLE 170456Z AUTO 33007KT 10SM CLR 24/11 A2991 RMK AO2 SLP128 T02440111=
KSPB 170453Z AUTO 33007KT 10SM CLR 26/13 A2992 RMK AO2 SLP131 T02610128=
KTTD 170453Z AUTO 26003KT 10SM CLR 26/12 A2992 RMK AO2 SLP130 T02560122=
KUAO 170453Z AUTO 04004KT 10SM CLR 24/12 A2993 RMK AO2 SLP134 T02440117=